Station History

Weather Underground - logo

Station Historical Data
Daily Summary for January 22, 2018 Units:  English    Metric   Both
« Previous Day
Next Day »
Daily Weekly Monthly Yearly Custom
  High: Low: Average:
Temperature: 60.1 °F 35.4 °F 46.6 °F
Dew Point: 43.9 °F 33.5 °F 39.6 °F
Humidity: 95 % 52 % 79 %
Wind Speed: 4.0 mph 0.0 mph 0.5 mph
Wind Gust: 4.0 mph - -
Wind:- - SW
Pressure: 30.42 in 30.29 in -
Precipitation: 0.00 in    
Historical Graphs
 
 
Tabular Data for January 22, 2018
Time Temperature Dew Point Pressure Wind Wind Speed Wind Gust Humidity Rainfall Rate (Hourly)
00:04 38.3 °F 36.5 °F 30.40 in Calm     93 % 0.00 in
00:09 38.2 °F 36.4 °F 30.40 in Calm     93 % 0.00 in
00:14 38.3 °F 36.7 °F 30.40 in Calm     94 % 0.00 in
00:19 38.3 °F 36.7 °F 30.40 in Calm     94 % 0.00 in
00:24 38.2 °F 36.4 °F 30.40 in Calm     93 % 0.00 in
00:29 38.1 °F 36.5 °F 30.40 in Calm     94 % 0.00 in
00:34 38.0 °F 36.4 °F 30.40 in Calm     94 % 0.00 in
00:39 38.1 °F 36.5 °F 30.39 in Calm     94 % 0.00 in
00:49 37.9 °F 36.3 °F 30.39 in Calm     94 % 0.00 in
00:59 37.5 °F 35.9 °F 30.39 in Calm     94 % 0.00 in
01:09 37.3 °F 35.7 °F 30.40 in Calm     94 % 0.00 in
01:14 37.2 °F 35.6 °F 30.39 in Calm     94 % 0.00 in
01:19 37.5 °F 35.9 °F 30.40 in Calm     94 % 0.00 in
01:24 37.7 °F 36.1 °F 30.40 in Calm     94 % 0.00 in
01:29 38.0 °F 36.7 °F 30.40 in Calm     95 % 0.00 in
01:34 38.1 °F 36.5 °F 30.40 in Calm     94 % 0.00 in
01:39 38.3 °F 36.7 °F 30.40 in Calm     94 % 0.00 in
01:44 38.4 °F 36.8 °F 30.40 in Calm     94 % 0.00 in
01:49 38.2 °F 36.4 °F 30.40 in Calm     93 % 0.00 in
01:54 38.0 °F 36.2 °F 30.40 in Calm     93 % 0.00 in
01:59 37.8 °F 36.0 °F 30.40 in Calm     93 % 0.00 in
02:04 37.6 °F 35.8 °F 30.40 in Calm     93 % 0.00 in
02:09 37.5 °F 35.7 °F 30.40 in Calm     93 % 0.00 in
02:15 37.3 °F 35.2 °F 30.40 in Calm     92 % 0.00 in
02:20 37.2 °F 35.1 °F 30.40 in Calm     92 % 0.00 in
02:25 37.1 °F 35.3 °F 30.40 in Calm     93 % 0.00 in
02:30 37.0 °F 35.2 °F 30.40 in Calm     93 % 0.00 in
02:45 36.7 °F 34.9 °F 30.39 in Calm     93 % 0.00 in
02:50 36.6 °F 34.8 °F 30.39 in Calm     93 % 0.00 in
02:55 36.5 °F 34.7 °F 30.39 in Calm     93 % 0.00 in
03:00 36.5 °F 34.7 °F 30.39 in Calm     93 % 0.00 in
03:05 36.4 °F 34.6 °F 30.39 in Calm     93 % 0.00 in
03:10 36.4 °F 34.6 °F 30.39 in Calm     93 % 0.00 in
03:15 36.5 °F 34.7 °F 30.39 in Calm     93 % 0.00 in
03:20 36.4 °F 34.6 °F 30.39 in Calm     93 % 0.00 in
03:25 36.4 °F 34.8 °F 30.39 in Calm     94 % 0.00 in
03:30 36.5 °F 34.9 °F 30.39 in Calm     94 % 0.00 in
03:35 36.6 °F 35.0 °F 30.39 in Calm     94 % 0.00 in
03:40 36.6 °F 35.0 °F 30.39 in Calm     94 % 0.00 in
03:45 36.7 °F 35.1 °F 30.39 in Calm     94 % 0.00 in
03:50 36.6 °F 35.0 °F 30.39 in Calm     94 % 0.00 in
03:55 36.5 °F 34.9 °F 30.38 in Calm     94 % 0.00 in
04:00 36.4 °F 34.8 °F 30.38 in Calm     94 % 0.00 in
04:10 36.5 °F 34.9 °F 30.38 in Calm     94 % 0.00 in
04:15 36.6 °F 35.0 °F 30.38 in Calm     94 % 0.00 in
04:30 35.7 °F 34.1 °F 30.38 in Calm     94 % 0.00 in
04:35 35.4 °F 33.6 °F 30.38 in Calm     93 % 0.00 in
04:41 35.6 °F 34.0 °F 30.39 in Calm     94 % 0.00 in
04:51 35.9 °F 34.3 °F 30.39 in Calm     94 % 0.00 in
04:56 36.1 °F 34.8 °F 30.39 in Calm     95 % 0.00 in
05:01 36.2 °F 34.9 °F 30.39 in Calm     95 % 0.00 in
05:06 36.0 °F 34.4 °F 30.38 in Calm     94 % 0.00 in
05:11 35.8 °F 34.2 °F 30.38 in Calm     94 % 0.00 in
05:16 35.8 °F 34.2 °F 30.38 in Calm     94 % 0.00 in
05:21 35.8 °F 34.5 °F 30.39 in Calm     95 % 0.00 in
05:26 35.7 °F 34.4 °F 30.39 in Calm     95 % 0.00 in
05:31 35.8 °F 34.5 °F 30.39 in Calm     95 % 0.00 in
05:36 36.3 °F 35.0 °F 30.40 in Calm     95 % 0.00 in
05:41 36.7 °F 35.4 °F 30.40 in Calm     95 % 0.00 in
05:51 36.6 °F 35.3 °F 30.40 in Calm     95 % 0.00 in
05:56 36.3 °F 35.0 °F 30.40 in Calm     95 % 0.00 in
06:01 36.2 °F 34.6 °F 30.40 in Calm     94 % 0.00 in
06:06 36.4 °F 35.1 °F 30.41 in Calm     95 % 0.00 in
06:11 36.6 °F 35.3 °F 30.41 in Calm     95 % 0.00 in
06:16 36.6 °F 35.3 °F 30.41 in Calm     95 % 0.00 in
06:21 36.6 °F 35.3 °F 30.41 in Calm     95 % 0.00 in
06:36 36.2 °F 34.6 °F 30.40 in Calm     94 % 0.00 in
06:41 36.5 °F 35.2 °F 30.41 in Calm     95 % 0.00 in
06:46 36.7 °F 35.4 °F 30.41 in Calm     95 % 0.00 in
06:51 36.7 °F 35.4 °F 30.41 in Calm     95 % 0.00 in
06:56 36.6 °F 35.0 °F 30.41 in Calm     94 % 0.00 in
07:01 36.9 °F 35.6 °F 30.41 in Calm     95 % 0.00 in
07:06 36.9 °F 35.6 °F 30.40 in Calm     95 % 0.00 in
07:11 36.9 °F 35.3 °F 30.40 in Calm     94 % 0.00 in
07:16 36.8 °F 35.2 °F 30.40 in Calm     94 % 0.00 in
07:18 36.7 °F 34.9 °F 30.40 in Calm     93 % 0.00 in
07:23 36.0 °F 33.9 °F 30.40 in Calm     92 % 0.00 in
07:28 35.6 °F 33.5 °F 30.39 in Calm     92 % 0.00 in
07:33 35.5 °F 33.7 °F 30.40 in Calm     93 % 0.00 in
07:38 35.5 °F 33.7 °F 30.39 in Calm     93 % 0.00 in
07:43 35.6 °F 33.8 °F 30.40 in Calm     93 % 0.00 in
07:48 35.7 °F 33.9 °F 30.40 in Calm     93 % 0.00 in
07:53 36.1 °F 34.5 °F 30.40 in Calm     94 % 0.00 in
07:58 36.7 °F 35.1 °F 30.40 in Calm     94 % 0.00 in
08:03 37.1 °F 35.3 °F 30.40 in WNW 1.2 mph   93 % 0.00 in
08:08 37.8 °F 36.0 °F 30.41 in Calm     93 % 0.00 in
08:13 38.6 °F 36.8 °F 30.41 in Calm     93 % 0.00 in
08:18 39.9 °F 38.3 °F 30.41 in Calm     94 % 0.00 in
08:23 41.7 °F 39.8 °F 30.41 in Calm     93 % 0.00 in
08:28 42.9 °F 40.2 °F 30.41 in Calm     90 % 0.00 in
08:33 43.7 °F 40.4 °F 30.41 in Calm     88 % 0.00 in
08:38 44.5 °F 40.9 °F 30.41 in Calm     87 % 0.00 in
08:43 45.3 °F 41.7 °F 30.41 in Calm     87 % 0.00 in
08:48 45.6 °F 41.4 °F 30.41 in Calm     85 % 0.00 in
08:53 46.7 °F 42.4 °F 30.41 in Calm     85 % 0.00 in
08:58 47.7 °F 42.8 °F 30.42 in SSE 1.2 mph 1.2 mph 83 % 0.00 in
09:03 48.4 °F 42.5 °F 30.42 in Calm     80 % 0.00 in
09:08 48.3 °F 42.1 °F 30.42 in Calm     79 % 0.00 in
09:13 47.8 °F 41.6 °F 30.42 in Calm     79 % 0.00 in
09:18 47.9 °F 42.0 °F 30.42 in Calm     80 % 0.00 in
09:23 47.9 °F 42.0 °F 30.42 in Calm     80 % 0.00 in
09:28 48.7 °F 42.5 °F 30.42 in SE 1.2 mph 1.2 mph 79 % 0.00 in
09:33 49.3 °F 42.1 °F 30.42 in SSE 1.2 mph 1.2 mph 76 % 0.00 in
09:38 50.0 °F 42.7 °F 30.42 in ESE 1.2 mph 1.2 mph 76 % 0.00 in
09:43 50.6 °F 43.3 °F 30.42 in SSE 1.0 mph   76 % 0.00 in
09:48 51.4 °F 43.7 °F 30.42 in South 1.2 mph   75 % 0.00 in
09:53 51.5 °F 43.5 °F 30.42 in Calm     74 % 0.00 in
09:58 51.8 °F 43.1 °F 30.42 in SE 1.2 mph 1.2 mph 72 % 0.00 in
10:03 52.2 °F 43.4 °F 30.42 in SE 2.3 mph 2.3 mph 72 % 0.00 in
10:08 52.4 °F 43.3 °F 30.42 in SSE 1.2 mph 1.2 mph 71 % 0.00 in
10:13 53.0 °F 43.5 °F 30.42 in Calm     70 % 0.00 in
10:18 53.6 °F 43.7 °F 30.42 in Calm     69 % 0.00 in
10:23 54.1 °F 43.4 °F 30.42 in SE 2.3 mph 2.3 mph 67 % 0.00 in
10:28 54.6 °F 43.9 °F 30.42 in South 1.2 mph 1.2 mph 67 % 0.00 in
10:33 55.0 °F 43.8 °F 30.42 in SSE 1.2 mph 1.2 mph 66 % 0.00 in
10:38 55.4 °F 43.8 °F 30.41 in ESE 2.3 mph   65 % 0.00 in
10:43 55.4 °F 43.4 °F 30.41 in Calm   0.4 mph 64 % 0.00 in
10:48 55.4 °F 43.4 °F 30.41 in Calm     64 % 0.00 in
10:53 55.4 °F 43.0 °F 30.41 in Calm   0.2 mph 63 % 0.00 in
10:59 55.1 °F 42.7 °F 30.41 in Calm   0.1 mph 63 % 0.00 in
11:04 55.5 °F 43.5 °F 30.41 in SSE 1.2 mph   64 % 0.00 in
11:09 55.7 °F 42.9 °F 30.40 in SE 1.0 mph   62 % 0.00 in
11:14 55.9 °F 42.6 °F 30.40 in West 2.3 mph 2.3 mph 61 % 0.00 in
11:19 55.9 °F 43.5 °F 30.40 in South 1.2 mph   63 % 0.00 in
11:24 56.3 °F 43.4 °F 30.39 in SE 2.3 mph 2.3 mph 62 % 0.00 in
11:29 56.6 °F 42.9 °F 30.39 in Calm     60 % 0.00 in
11:34 56.7 °F 43.0 °F 30.39 in Calm     60 % 0.00 in
11:39 56.8 °F 43.1 °F 30.38 in SSW 1.2 mph 1.2 mph 60 % 0.00 in
11:44 57.2 °F 43.4 °F 30.38 in NW 2.0 mph 2.0 mph 60 % 0.00 in
11:49 56.8 °F 42.6 °F 30.38 in NNW 2.3 mph 2.3 mph 59 % 0.00 in
11:54 56.9 °F 43.2 °F 30.38 in SSE 3.5 mph 3.5 mph 60 % 0.00 in
12:04 57.4 °F 43.2 °F 30.37 in Calm     59 % 0.00 in
12:09 57.7 °F 43.5 °F 30.37 in SSE 3.5 mph 3.5 mph 59 % 0.00 in
12:14 57.7 °F 43.0 °F 30.37 in North 1.2 mph 1.2 mph 58 % 0.00 in
12:19 57.8 °F 43.1 °F 30.36 in NW 2.3 mph 2.3 mph 58 % 0.00 in
12:24 58.2 °F 43.9 °F 30.36 in SE 1.2 mph 1.2 mph 59 % 0.00 in
12:29 58.0 °F 42.8 °F 30.36 in WNW 2.3 mph 2.3 mph 57 % 0.00 in
12:34 58.0 °F 43.7 °F 30.35 in ESE 3.5 mph 3.5 mph 59 % 0.00 in
12:39 58.5 °F 42.8 °F 30.35 in SE 3.5 mph 3.5 mph 56 % 0.00 in
12:44 58.7 °F 43.0 °F 30.35 in SSW 3.5 mph 3.5 mph 56 % 0.00 in
12:49 58.7 °F 43.5 °F 30.34 in ESE 3.5 mph 3.5 mph 57 % 0.00 in
12:54 59.0 °F 43.8 °F 30.34 in NNW 2.0 mph 2.0 mph 57 % 0.00 in
12:59 59.2 °F 43.0 °F 30.34 in NE 1.2 mph 1.2 mph 55 % 0.00 in
13:04 59.1 °F 42.9 °F 30.34 in North 3.0 mph 3.0 mph 55 % 0.00 in
13:09 59.0 °F 42.4 °F 30.34 in NNW 3.5 mph 3.5 mph 54 % 0.00 in
13:14 59.3 °F 42.2 °F 30.33 in WNW 2.0 mph 2.0 mph 53 % 0.00 in
13:19 58.9 °F 42.3 °F 30.33 in SSE 4.0 mph 4.0 mph 54 % 0.00 in
13:24 59.1 °F 42.0 °F 30.33 in North 2.3 mph 2.3 mph 53 % 0.00 in
13:29 59.2 °F 42.6 °F 30.33 in WNW 2.3 mph 2.3 mph 54 % 0.00 in
13:34 59.0 °F 42.8 °F 30.33 in WNW 2.3 mph 2.3 mph 55 % 0.00 in
13:39 59.1 °F 42.9 °F 30.33 in NW 2.3 mph 2.3 mph 55 % 0.00 in
13:44 58.7 °F 42.1 °F 30.32 in NNW 1.2 mph 1.2 mph 54 % 0.00 in
13:49 59.0 °F 42.8 °F 30.32 in WNW 2.3 mph 2.3 mph 55 % 0.00 in
13:54 59.6 °F 41.9 °F 30.32 in Calm     52 % 0.00 in
13:59 59.5 °F 41.9 °F 30.32 in WNW 2.3 mph 2.3 mph 52 % 0.00 in
14:04 59.3 °F 42.2 °F 30.32 in NW 3.5 mph 3.5 mph 53 % 0.00 in
14:09 59.6 °F 42.4 °F 30.32 in SSE 3.5 mph 3.5 mph 53 % 0.00 in
14:14 59.7 °F 42.5 °F 30.31 in ESE 1.0 mph   53 % 0.00 in
14:19 59.9 °F 42.2 °F 30.31 in East 2.3 mph   52 % 0.00 in
14:24 60.1 °F 42.4 °F 30.31 in SE 2.0 mph 2.0 mph 52 % 0.00 in
14:29 60.1 °F 42.4 °F 30.31 in WNW 3.5 mph 3.5 mph 52 % 0.00 in
14:35 59.9 °F 42.2 °F 30.31 in SSW 1.2 mph 1.2 mph 52 % 0.00 in
14:39 60.0 °F 42.3 °F 30.31 in SSE 1.2 mph 1.2 mph 52 % 0.00 in
14:44 60.1 °F 42.9 °F 30.30 in Calm     53 % 0.00 in
14:50 59.9 °F 42.2 °F 30.30 in West 1.2 mph 1.2 mph 52 % 0.00 in
14:55 59.4 °F 42.7 °F 30.30 in NW 2.3 mph 2.3 mph 54 % 0.00 in
15:00 59.1 °F 42.5 °F 30.30 in Calm     54 % 0.00 in
15:05 59.2 °F 43.0 °F 30.31 in Calm     55 % 0.00 in
15:10 59.2 °F 42.6 °F 30.31 in NNW 1.2 mph   54 % 0.00 in
15:15 59.2 °F 43.0 °F 30.30 in WSW 1.2 mph 1.2 mph 55 % 0.00 in
15:20 59.0 °F 42.4 °F 30.30 in SE 1.2 mph 1.2 mph 54 % 0.00 in
15:25 58.8 °F 42.2 °F 30.30 in NW 1.2 mph   54 % 0.00 in
15:30 58.7 °F 42.6 °F 30.30 in WNW 1.2 mph 1.2 mph 55 % 0.00 in
15:35 58.5 °F 41.9 °F 30.30 in Calm     54 % 0.00 in
15:40 58.3 °F 42.2 °F 30.30 in Calm     55 % 0.00 in
15:45 58.4 °F 41.8 °F 30.30 in WSW 1.2 mph   54 % 0.00 in
15:50 58.4 °F 41.8 °F 30.30 in Calm     54 % 0.00 in
15:55 58.3 °F 42.2 °F 30.30 in NW 1.2 mph 1.2 mph 55 % 0.00 in
16:00 58.3 °F 42.7 °F 30.30 in Calm     56 % 0.00 in
16:05 58.2 °F 42.6 °F 30.30 in Calm     56 % 0.00 in
16:10 58.1 °F 42.0 °F 30.30 in Calm     55 % 0.00 in
16:15 58.0 °F 41.9 °F 30.30 in Calm     55 % 0.00 in
16:20 57.8 °F 41.7 °F 30.30 in Calm     55 % 0.00 in
16:25 57.7 °F 41.6 °F 30.30 in Calm     55 % 0.00 in
16:30 57.6 °F 42.0 °F 30.30 in Calm     56 % 0.00 in
16:35 57.4 °F 42.3 °F 30.30 in Calm     57 % 0.00 in
16:40 57.1 °F 42.9 °F 30.30 in Calm     59 % 0.00 in
16:45 57.0 °F 42.8 °F 30.30 in Calm     59 % 0.00 in
16:50 56.7 °F 42.5 °F 30.30 in Calm     59 % 0.00 in
16:55 56.4 °F 42.7 °F 30.30 in Calm     60 % 0.00 in
17:00 56.0 °F 43.2 °F 30.31 in Calm     62 % 0.00 in
17:05 55.4 °F 42.6 °F 30.31 in Calm     62 % 0.00 in
17:15 54.3 °F 42.4 °F 30.31 in Calm     64 % 0.00 in
17:20 53.9 °F 42.8 °F 30.31 in Calm     66 % 0.00 in
17:25 53.5 °F 43.2 °F 30.31 in Calm     68 % 0.00 in
17:30 52.9 °F 43.4 °F 30.30 in Calm     70 % 0.00 in
17:35 52.4 °F 42.9 °F 30.30 in Calm     70 % 0.00 in
17:40 52.0 °F 42.9 °F 30.30 in Calm     71 % 0.00 in
17:45 51.5 °F 42.8 °F 30.30 in Calm     72 % 0.00 in
17:50 51.0 °F 43.0 °F 30.30 in Calm     74 % 0.00 in
17:55 50.6 °F 42.6 °F 30.31 in Calm     74 % 0.00 in
18:00 50.2 °F 42.6 °F 30.30 in Calm     75 % 0.00 in
18:05 50.1 °F 43.2 °F 30.30 in Calm     77 % 0.00 in
18:20 49.5 °F 42.2 °F 30.30 in Calm     76 % 0.00 in
18:25 49.4 °F 42.8 °F 30.30 in Calm     78 % 0.00 in
18:30 49.1 °F 42.2 °F 30.30 in Calm     77 % 0.00 in
18:35 48.8 °F 42.2 °F 30.30 in Calm     78 % 0.00 in
18:40 48.5 °F 42.3 °F 30.30 in Calm     79 % 0.00 in
18:45 48.1 °F 42.2 °F 30.30 in Calm     80 % 0.00 in
18:50 47.7 °F 41.8 °F 30.30 in Calm     80 % 0.00 in
18:55 47.4 °F 42.2 °F 30.30 in Calm     82 % 0.00 in
19:00 47.2 °F 42.0 °F 30.30 in Calm     82 % 0.00 in
19:05 47.1 °F 41.9 °F 30.29 in Calm     82 % 0.00 in
19:10 47.0 °F 41.8 °F 30.29 in Calm     82 % 0.00 in
19:15 46.8 °F 41.9 °F 30.29 in Calm     83 % 0.00 in
19:20 46.8 °F 41.6 °F 30.29 in Calm     82 % 0.00 in
19:25 46.6 °F 41.4 °F 30.29 in Calm     82 % 0.00 in
19:35 46.3 °F 41.7 °F 30.29 in Calm     84 % 0.00 in
19:45 46.1 °F 41.5 °F 30.29 in Calm     84 % 0.00 in
19:50 46.0 °F 41.4 °F 30.29 in Calm     84 % 0.00 in
19:55 45.9 °F 41.3 °F 30.29 in Calm     84 % 0.00 in
20:05 45.7 °F 41.1 °F 30.29 in Calm     84 % 0.00 in
20:10 45.6 °F 41.4 °F 30.29 in Calm     85 % 0.00 in
20:15 45.3 °F 41.1 °F 30.29 in Calm     85 % 0.00 in
20:20 45.2 °F 41.0 °F 30.29 in Calm     85 % 0.00 in
20:25 45.1 °F 41.2 °F 30.30 in Calm     86 % 0.00 in
20:30 45.0 °F 41.1 °F 30.30 in Calm     86 % 0.00 in
20:35 44.5 °F 40.3 °F 30.30 in Calm     85 % 0.00 in
20:40 44.2 °F 40.6 °F 30.30 in Calm     87 % 0.00 in
20:45 44.1 °F 40.5 °F 30.30 in Calm     87 % 0.00 in
20:55 43.8 °F 40.2 °F 30.30 in Calm     87 % 0.00 in
21:00 43.4 °F 40.1 °F 30.30 in Calm     88 % 0.00 in
21:05 43.2 °F 39.9 °F 30.30 in Calm     88 % 0.00 in
21:10 43.1 °F 40.1 °F 30.30 in Calm     89 % 0.00 in
21:20 43.6 °F 40.3 °F 30.30 in Calm     88 % 0.00 in
21:25 43.8 °F 40.5 °F 30.31 in Calm     88 % 0.00 in
21:35 44.0 °F 40.1 °F 30.30 in Calm     86 % 0.00 in
21:40 44.0 °F 40.1 °F 30.31 in Calm     86 % 0.00 in
21:45 43.9 °F 40.0 °F 30.31 in Calm     86 % 0.00 in
21:50 43.7 °F 39.8 °F 30.31 in Calm     86 % 0.00 in
22:00 42.2 °F 38.3 °F 30.31 in Calm     86 % 0.00 in
22:05 41.8 °F 38.2 °F 30.31 in Calm     87 % 0.00 in
22:10 41.4 °F 38.1 °F 30.31 in Calm     88 % 0.00 in
22:15 41.0 °F 38.0 °F 30.31 in Calm     89 % 0.00 in
22:20 40.9 °F 38.2 °F 30.32 in Calm     90 % 0.00 in
22:25 40.8 °F 38.1 °F 30.32 in Calm     90 % 0.00 in
22:30 40.7 °F 38.0 °F 30.32 in Calm     90 % 0.00 in
22:35 40.5 °F 37.8 °F 30.32 in Calm     90 % 0.00 in
22:40 40.3 °F 37.6 °F 30.32 in Calm     90 % 0.00 in
22:45 40.1 °F 37.4 °F 30.31 in Calm     90 % 0.00 in
22:46 40.1 °F 37.7 °F 30.31 in Calm     91 % 0.00 in
22:51 40.0 °F 37.6 °F 30.31 in Calm     91 % 0.00 in
22:56 39.9 °F 37.5 °F 30.31 in Calm     91 % 0.00 in
23:01 39.9 °F 37.5 °F 30.31 in Calm     91 % 0.00 in
23:06 40.1 °F 38.0 °F 30.31 in Calm     92 % 0.00 in
23:16 40.7 °F 38.6 °F 30.31 in Calm     92 % 0.00 in
23:21 40.6 °F 37.9 °F 30.31 in Calm     90 % 0.00 in
23:27 40.5 °F 37.8 °F 30.31 in Calm     90 % 0.00 in
23:32 40.5 °F 37.8 °F 30.31 in Calm     90 % 0.00 in
23:37 40.7 °F 38.3 °F 30.31 in Calm     91 % 0.00 in
23:42 40.9 °F 38.2 °F 30.31 in Calm     90 % 0.00 in
23:52 40.8 °F 38.4 °F 30.31 in Calm     91 % 0.00 in
23:57 41.1 °F 38.4 °F 30.31 in Calm     90 % 0.00 in
Park Place, Exeter, Tulare County, California, USA
Compliments of Weather Underground - 2.5 mb